Time;durP1;ratioP1;P1;durP2;ratioP2;P2;SDS_P1;SDS_P2;PMS_P1;PMS_P2;Temp;Humidity;BMP_temperature;BMP_pressure;BME280_temperature;BME280_humidity;BME280_pressure;Samples;Min_cycle;Max_cycle;Signal;HPM_P1;HPM_P2
2022/06/03 00:00:54;;;;;;;6.62;3.37;;;;;;;9.97;75.62;100134.85;1785226;79;20106;-58
2022/06/03 00:03:34;;;;;;;8.75;3.67;;;;;;;10.00;75.54;100134.73;1797872;78;21615;-60
2022/06/03 00:06:46;;;;;;;4.15;2.72;;;;;;;10.03;75.56;100135.06;1770660;78;20934;-60
2022/06/03 00:09:30;;;;;;;7.37;3.40;;;;;;;9.99;75.81;100143.91;1700174;82;21526;-60
2022/06/03 00:12:31;;;;;;;7.87;3.52;;;;;;;10.00;75.90;100146.93;1674699;84;21117;-60
2022/06/03 00:15:18;;;;;;;7.83;3.90;;;;;;;10.00;75.95;100146.47;1698555;83;21066;-60
2022/06/03 00:18:20;;;;;;;7.55;3.55;;;;;;;9.93;76.10;100148.90;1705682;83;21275;-60
2022/06/03 00:21:09;;;;;;;8.95;3.15;;;;;;;9.94;76.20;100157.14;1722307;81;21607;-60
2022/06/03 00:23:52;;;;;;;7.67;3.40;;;;;;;9.92;76.30;100145.91;1716864;81;22000;-61
2022/06/03 00:26:59;;;;;;;6.70;3.10;;;;;;;9.90;76.24;100152.94;1723727;81;21168;-59
2022/06/03 00:29:47;;;;;;;6.78;3.25;;;;;;;9.88;76.23;100146.91;1705920;82;21167;-59
2022/06/03 00:32:49;;;;;;;11.22;3.98;;;;;;;9.78;76.34;100147.73;1703096;82;21050;-61
2022/06/03 00:35:50;;;;;;;9.05;3.20;;;;;;;9.74;76.44;100149.19;1697379;82;21136;-60
2022/06/03 00:38:44;;;;;;;10.55;3.72;;;;;;;9.70;76.54;100148.92;1702134;82;21442;-59
2022/06/03 00:41:47;;;;;;;8.10;3.55;;;;;;;9.64;76.68;100144.32;1697507;82;21082;-60
2022/06/03 00:44:31;;;;;;;5.33;3.65;;;;;;;9.59;76.81;100146.23;1770341;78;20983;-60
2022/06/03 00:47:39;;;;;;;6.67;4.25;;;;;;;9.55;76.88;100149.88;1725886;81;21214;-60
2022/06/03 00:50:17;;;;;;;6.70;3.27;;;;;;;9.55;77.06;100149.88;1702697;82;21118;-60
2022/06/03 00:53:10;;;;;;;12.33;4.87;;;;;;;9.56;77.19;100156.78;1717307;81;21480;-59
2022/06/03 00:55:51;;;;;;;9.28;3.50;;;;;;;9.61;77.26;100162.69;1723975;81;21004;-59
2022/06/03 00:58:34;;;;;;;6.75;3.20;;;;;;;9.64;77.26;100157.36;1699550;82;21538;-60
2022/06/03 01:01:23;;;;;;;9.10;4.47;;;;;;;9.66;77.46;100151.22;1677703;83;21076;-60
2022/06/03 01:04:04;;;;;;;6.17;3.27;;;;;;;9.70;77.62;100154.13;1699343;82;21049;-59
2022/06/03 01:06:51;;;;;;;5.12;3.40;;;;;;;9.74;77.63;100153.10;1700513;83;21658;-60
2022/06/03 01:09:51;;;;;;;9.18;3.37;;;;;;;9.76;77.73;100151.30;1675008;84;21050;-60
2022/06/03 01:12:47;;;;;;;6.35;3.65;;;;;;;9.80;77.82;100151.56;1677273;84;21199;-60
2022/06/03 01:15:28;;;;;;;9.83;4.37;;;;;;;9.83;77.84;100148.84;1673756;83;21155;-61
2022/06/03 01:18:28;;;;;;;7.35;3.83;;;;;;;9.87;77.96;100156.96;1679791;84;20974;-60
2022/06/03 01:21:14;;;;;;;5.00;3.50;;;;;;;9.89;78.02;100149.94;1678356;84;21212;-61
2022/06/03 01:24:18;;;;;;;5.30;3.17;;;;;;;9.93;78.17;100152.81;1682357;83;22580;-61
2022/06/03 01:27:09;;;;;;;7.80;3.67;;;;;;;9.95;78.18;100145.79;1700130;83;21841;-60
2022/06/03 01:30:03;;;;;;;7.25;3.70;;;;;;;9.99;78.25;100147.36;1695305;83;21061;-60
2022/06/03 01:32:50;;;;;;;5.67;2.90;;;;;;;10.01;78.37;100150.77;1685508;83;21763;-60
2022/06/03 01:35:28;;;;;;;8.08;3.72;;;;;;;10.03;78.42;100154.17;1692633;83;21955;-59
2022/06/03 01:38:19;;;;;;;7.80;3.05;;;;;;;10.07;78.55;100146.61;1707475;82;21518;-59
2022/06/03 01:41:19;;;;;;;6.42;3.80;;;;;;;10.09;78.58;100147.88;1708685;82;21017;-60
2022/06/03 01:44:12;;;;;;;6.75;3.55;;;;;;;10.11;78.64;100138.23;1705484;82;21066;-60
2022/06/03 01:47:07;;;;;;;4.95;2.75;;;;;;;10.13;78.74;100142.07;1692458;83;21171;-61
2022/06/03 01:50:00;;;;;;;4.70;2.83;;;;;;;10.13;78.74;100139.46;1689013;82;21521;-60
2022/06/03 01:52:47;;;;;;;6.67;3.27;;;;;;;10.13;78.74;100140.77;1691876;83;21116;-59
2022/06/03 01:55:28;;;;;;;8.30;4.22;;;;;;;10.12;78.86;100139.08;1695202;83;21119;-60
2022/06/03 01:58:24;;;;;;;5.90;3.22;;;;;;;10.11;78.93;100141.27;1687042;83;21084;-59
2022/06/03 02:01:23;;;;;;;5.62;2.98;;;;;;;10.12;79.03;100139.08;1708637;81;21103;-61
2022/06/03 02:04:26;;;;;;;7.60;3.35;;;;;;;10.13;79.16;100142.07;1761685;79;21548;-61
2022/06/03 02:07:19;;;;;;;5.62;3.58;;;;;;;10.15;79.19;100147.62;1762795;80;21584;-59
2022/06/03 02:10:26;;;;;;;7.87;3.42;;;;;;;10.12;79.39;100136.47;1762983;80;20909;-59
2022/06/03 02:13:13;;;;;;;8.55;3.25;;;;;;;10.20;79.27;100142.25;1761658;80;21132;-59
2022/06/03 02:16:19;;;;;;;10.20;3.40;;;;;;;10.26;79.23;100149.83;1765402;80;20974;-58
2022/06/03 02:19:22;;;;;;;6.53;4.00;;;;;;;10.26;79.23;100149.83;1757828;80;21836;-59
2022/06/03 02:22:31;;;;;;;7.30;3.15;;;;;;;10.29;79.43;100153.66;1723340;81;21136;-58
2022/06/03 02:25:32;;;;;;;6.78;3.58;;;;;;;10.31;79.48;100150.53;1787506;78;21060;-59
2022/06/03 02:28:19;;;;;;;11.15;3.87;;;;;;;10.33;79.57;100152.61;1788019;78;20943;-59
2022/06/03 02:31:18;;;;;;;4.83;2.92;;;;;;;10.34;79.58;100155.63;1792447;78;20997;-59
2022/06/03 02:33:59;;;;;;;5.58;3.10;;;;;;;10.35;79.65;100153.41;1791846;78;21067;-59
2022/06/03 02:36:52;;;;;;;6.53;3.10;;;;;;;10.37;79.69;100155.51;1793041;78;20994;-59
2022/06/03 02:39:50;;;;;;;5.30;3.08;;;;;;;10.40;79.73;100157.15;1793849;78;21029;-59
2022/06/03 02:42:49;;;;;;;6.65;2.90;;;;;;;10.41;79.75;100161.45;1773031;79;21007;-60
2022/06/03 02:45:56;;;;;;;5.17;2.92;;;;;;;10.42;79.78;100158.80;1765736;80;21048;-60
2022/06/03 02:48:37;;;;;;;6.72;3.10;;;;;;;10.42;79.88;100150.96;1771551;80;21476;-60
2022/06/03 02:51:31;;;;;;;7.47;2.98;;;;;;;10.45;79.95;100158.67;1769696;80;20899;-59
2022/06/03 02:54:27;;;;;;;8.30;3.30;;;;;;;10.48;80.07;100155.93;1776159;79;21024;-59
2022/06/03 02:57:05;;;;;;;7.97;3.47;;;;;;;10.52;80.09;100158.80;1776739;79;21028;-60
2022/06/03 02:59:52;;;;;;;7.35;3.37;;;;;;;10.56;80.17;100162.59;1709658;81;21143;-60
2022/06/03 03:02:37;;;;;;;10.53;3.40;;;;;;;10.60;80.22;100164.19;1709859;82;21185;-60
2022/06/03 03:05:21;;;;;;;7.97;3.58;;;;;;;10.65;80.28;100157.02;1714201;81;21068;-59
2022/06/03 03:08:08;;;;;;;7.42;3.15;;;;;;;10.70;80.29;100160.30;1712863;81;21159;-59
2022/06/03 03:10:55;;;;;;;8.38;3.33;;;;;;;10.75;80.31;100158.32;1714612;81;21047;-60
2022/06/03 03:13:52;;;;;;;7.65;4.17;;;;;;;10.77;80.36;100156.50;1713385;81;21072;-59
2022/06/03 03:16:55;;;;;;;;;;;;;;;10.82;80.33;100160.25;1714161;82;21455;-60
2022/06/03 03:19:58;;;;;;;5.25;3.12;;;;;;;10.83;80.60;100164.08;1714124;81;20136;-61
2022/06/03 03:22:59;;;;;;;5.50;3.00;;;;;;;10.94;80.51;100159.73;1717241;82;20971;-59
2022/06/03 03:25:46;;;;;;;8.80;3.05;;;;;;;11.01;80.59;100155.08;1708282;81;21110;-60
2022/06/03 03:28:44;;;;;;;;;;;;;;;11.15;80.63;100161.91;1712087;82;21130;-59
2022/06/03 03:31:53;;;;;;;7.20;3.40;;;;;;;11.26;80.60;100162.30;1717294;82;21856;-59
2022/06/03 03:34:41;;;;;;;6.95;3.02;;;;;;;11.31;80.44;100162.92;1714042;82;21113;-60
2022/06/03 03:37:52;;;;;;;6.65;3.55;;;;;;;11.35;80.51;100165.81;1722046;79;21104;-59
2022/06/03 03:40:43;;;;;;;8.10;3.40;;;;;;;11.40;80.53;100161.70;1778142;79;21493;-61
2022/06/03 03:43:54;;;;;;;7.80;3.15;;;;;;;11.30;80.26;100145.55;1769560;79;20982;-60
2022/06/03 03:46:47;;;;;;;5.53;2.90;;;;;;;11.39;80.46;100171.28;1776183;79;21838;-60
2022/06/03 03:49:25;;;;;;;6.85;3.22;;;;;;;11.40;80.56;100163.85;1773849;79;21515;-60
2022/06/03 03:52:38;;;;;;;6.42;3.55;;;;;;;11.53;80.61;100175.07;1770230;79;21060;-59
2022/06/03 03:55:31;;;;;;;9.10;3.20;;;;;;;11.53;80.57;100168.53;1773390;79;21493;-60
2022/06/03 03:58:03;;;;;;;8.48;3.33;;;;;;;11.61;80.50;100174.27;1771675;79;20991;-60
2022/06/03 04:01:02;;;;;;;7.47;3.45;;;;;;;11.66;80.52;100181.47;1773107;79;21545;-61
2022/06/03 04:04:14;;;;;;;8.93;3.30;;;;;;;11.70;80.58;100185.63;1772489;79;21001;-61
2022/06/03 04:06:55;;;;;;;6.42;3.05;;;;;;;11.67;80.59;100162.23;1771870;79;21634;-60
2022/06/03 04:09:45;;;;;;;6.12;3.75;;;;;;;11.85;80.54;100182.38;1772911;79;21023;-59
2022/06/03 04:13:06;;;;;;;6.10;3.12;;;;;;;11.92;80.36;100189.94;1731745;82;21209;-60
2022/06/03 04:16:16;;;;;;;7.62;3.20;;;;;;;11.95;80.54;100181.95;1727572;82;22291;-60
2022/06/03 04:19:18;;;;;;;6.03;3.52;;;;;;;12.04;80.59;100188.06;1643519;86;21085;-60
2022/06/03 04:22:20;;;;;;;5.22;3.30;;;;;;;12.06;80.62;100192.78;1645214;86;21097;-60
2022/06/03 04:25:13;;;;;;;9.05;3.30;;;;;;;12.08;80.64;100180.48;1643609;86;21168;-61
2022/06/03 04:28:35;;;;;;;6.50;3.20;;;;;;;12.15;80.66;100183.64;1641509;86;21598;-60
2022/06/03 04:31:25;;;;;;;7.12;3.02;;;;;;;12.23;80.79;100182.37;1642472;86;21542;-60
2022/06/03 04:34:32;;;;;;;6.05;3.10;;;;;;;12.41;80.70;100188.99;1646253;86;21187;-61
2022/06/03 04:37:35;;;;;;;5.60;3.33;;;;;;;12.59;80.61;100191.19;1644059;86;21108;-61
2022/06/03 04:40:59;;;;;;;7.28;3.02;;;;;;;12.85;80.79;100184.66;1639048;86;21218;-61
2022/06/03 04:44:04;;;;;;;7.85;3.02;;;;;;;13.28;80.91;100188.66;1641407;86;21030;-61
2022/06/03 04:47:15;;;;;;;5.78;3.00;;;;;;;13.45;80.40;100183.85;1636599;86;21512;-62
2022/06/03 04:50:04;;;;;;;8.73;2.65;;;;;;;13.66;80.28;100181.40;1665003;83;21832;-61
2022/06/03 04:53:16;;;;;;;11.53;3.40;;;;;;;13.80;79.98;100189.02;1665467;83;21582;-61
2022/06/03 04:56:04;;;;;;;8.55;2.62;;;;;;;13.92;80.02;100193.63;1711413;81;21060;-61
2022/06/03 04:59:08;;;;;;;7.53;2.33;;;;;;;14.12;79.81;100200.90;1751641;80;21013;-59
2022/06/03 05:02:12;;;;;;;5.28;2.60;;;;;;;14.41;79.72;100203.23;1750514;80;22315;-60
2022/06/03 05:05:07;;;;;;;6.95;2.62;;;;;;;15.46;81.16;100196.33;1750510;80;21089;-61
2022/06/03 05:08:26;;;;;;;6.12;2.33;;;;;;;17.39;80.73;100197.65;1749195;80;21062;-60
2022/06/03 05:11:32;;;;;;;7.78;2.80;;;;;;;19.20;80.08;100196.63;1753624;79;21070;-61
2022/06/03 05:14:42;;;;;;;7.53;3.12;;;;;;;20.94;78.68;100196.54;1755071;80;21082;-61
2022/06/03 05:17:29;;;;;;;9.08;2.35;;;;;;;22.02;77.49;100193.57;1755553;80;21141;-62
2022/06/03 05:20:08;;;;;;;3.00;1.90;;;;;;;22.75;76.08;100190.67;1737645;80;21578;-62
2022/06/03 05:23:13;;;;;;;5.97;2.37;;;;;;;23.20;74.59;100184.30;1755720;80;21505;-61
2022/06/03 05:26:25;;;;;;;4.95;2.27;;;;;;;22.86;74.31;100191.03;1753852;80;21272;-63
2022/06/03 05:29:15;;;;;;;5.92;2.35;;;;;;;22.58;73.95;100190.03;1759203;79;21146;-64
2022/06/03 05:32:27;;;;;;;6.50;2.30;;;;;;;22.56;73.24;100194.15;1684921;83;21554;-63
2022/06/03 05:35:21;;;;;;;7.25;2.52;;;;;;;21.81;71.50;100195.44;1701206;83;21064;-62
2022/06/03 05:38:12;;;;;;;9.10;2.62;;;;;;;20.87;71.68;100198.52;1700809;82;21117;-62
2022/06/03 05:41:06;;;;;;;6.65;2.67;;;;;;;19.90;70.97;100199.64;1700668;83;21202;-61
2022/06/03 05:43:44;;;;;;;16.57;2.52;;;;;;;18.93;71.07;100198.20;1725228;82;21646;-61
2022/06/03 05:46:15;;;;;;;8.08;3.00;;;;;;;18.15;70.41;100216.63;1665130;85;21920;-61
2022/06/03 05:49:07;;;;;;;6.22;2.47;;;;;;;17.60;70.95;100219.95;1668296;84;21092;-62
2022/06/03 05:52:05;;;;;;;8.88;2.42;;;;;;;17.15;70.52;100224.75;1667414;84;21614;-61
2022/06/03 05:54:57;;;;;;;4.55;2.27;;;;;;;16.59;70.24;100218.73;1668588;85;21205;-61
2022/06/03 05:57:47;;;;;;;8.65;2.70;;;;;;;16.29;70.66;100227.64;1669533;84;21085;-63
2022/06/03 06:00:51;;;;;;;6.33;2.58;;;;;;;16.17;70.74;100223.15;1670369;85;21193;-63
2022/06/03 06:03:44;;;;;;;7.95;2.75;;;;;;;16.15;70.53;100228.98;1665456;84;21157;-62
2022/06/03 06:06:31;;;;;;;6.22;2.40;;;;;;;16.17;70.13;100227.10;1687264;83;20979;-63
2022/06/03 06:09:26;;;;;;;5.47;2.42;;;;;;;16.19;70.30;100230.94;1699551;83;20986;-62
2022/06/03 06:12:22;;;;;;;8.63;2.98;;;;;;;16.16;69.82;100237.28;1697491;83;21077;-62
2022/06/03 06:15:16;;;;;;;6.58;2.20;;;;;;;16.26;70.11;100235.73;1691190;83;21565;-62
2022/06/03 06:18:00;;;;;;;6.60;2.47;;;;;;;16.48;69.85;100231.28;1692691;83;21236;-61
2022/06/03 06:20:43;;;;;;;5.90;2.00;;;;;;;16.93;70.09;100229.77;1690808;83;21435;-64
2022/06/03 06:23:36;;;;;;;6.15;2.08;;;;;;;17.41;69.29;100218.20;1731805;79;21052;-62
2022/06/03 06:26:29;;;;;;;8.28;2.15;;;;;;;17.46;68.18;100220.05;1789857;79;21054;-61
2022/06/03 06:29:30;;;;;;;2.85;1.80;;;;;;;17.68;68.80;100214.16;1710399;82;21086;-62
2022/06/03 06:32:28;;;;;;;7.03;2.27;;;;;;;17.93;68.36;100225.22;1712597;82;21033;-62
2022/06/03 06:35:43;;;;;;;3.90;2.08;;;;;;;18.38;68.51;100221.59;1715463;82;21001;-60
2022/06/03 06:38:21;;;;;;;7.20;2.30;;;;;;;19.01;68.21;100225.78;1710522;82;21025;-60
2022/06/03 06:41:27;;;;;;;6.75;2.15;;;;;;;19.77;67.64;100219.61;1714377;82;21008;-61
2022/06/03 06:45:57;;;;;;;5.00;1.90;;;;;;;19.51;65.83;100220.77;1866947;73;22716;-60
2022/06/03 06:49:08;;;;;;;4.20;1.67;;;;;;;19.31;66.33;100223.61;1837252;75;20986;-61
2022/06/03 06:52:08;;;;;;;3.85;2.08;;;;;;;19.36;66.12;100217.00;1840019;75;21154;-61
2022/06/03 06:54:52;;;;;;;4.25;1.90;;;;;;;19.33;65.62;100215.92;1764547;78;20926;-62
2022/06/03 06:57:29;;;;;;;5.12;1.82;;;;;;;19.54;65.59;100223.17;1769001;78;21593;-62
2022/06/03 07:00:28;;;;;;;6.20;2.27;;;;;;;19.34;65.09;100222.05;1737475;80;20977;-62
2022/06/03 07:03:17;;;;;;;7.25;2.00;;;;;;;20.01;66.08;100218.67;1737712;80;21012;-61
2022/06/03 07:06:01;;;;;;;7.22;2.10;;;;;;;20.84;65.90;100228.81;1650027;85;21104;-63
2022/06/03 07:08:49;;;;;;;5.35;2.58;;;;;;;21.47;64.82;100218.27;1651618;85;21011;-62
2022/06/03 07:11:30;;;;;;;8.33;1.77;;;;;;;21.43;63.84;100223.00;1654109;85;21142;-62
2022/06/03 07:14:07;;;;;;;5.30;2.08;;;;;;;21.76;64.07;100229.54;1642177;85;21391;-62
2022/06/03 07:20:15;;;;;;;13.22;2.72;;;;;;;22.32;62.84;100225.11;1651450;85;21152;-63
2022/06/03 07:22:56;;;;;;;5.92;1.90;;;;;;;21.63;62.04;100219.97;1650349;85;21651;-65
2022/06/03 07:25:48;;;;;;;6.75;1.92;;;;;;;21.78;62.35;100223.12;1646256;84;21120;-63
2022/06/03 07:28:45;;;;;;;5.60;2.00;;;;;;;22.00;62.14;100214.13;1654722;85;21566;-62
2022/06/03 07:31:40;;;;;;;17.07;2.70;;;;;;;22.03;61.68;100221.83;1614120;87;21184;-64
2022/06/03 07:34:14;;;;;;;59.13;6.55;;;;;;;21.78;61.40;100228.92;1624564;86;22049;-62
2022/06/03 07:37:02;;;;;;;4.85;1.80;;;;;;;21.76;61.38;100228.20;1624849;86;21034;-62
2022/06/03 07:39:53;;;;;;;7.40;2.27;;;;;;;21.73;60.95;100224.48;1563184;89;21138;-63
2022/06/03 07:42:28;;;;;;;5.33;1.50;;;;;;;21.50;60.37;100221.98;1607563;87;21040;-63
2022/06/03 07:45:06;;;;;;;3.52;1.55;;;;;;;21.44;60.30;100223.34;1611996;87;21081;-65
2022/06/03 07:47:34;;;;;;;6.28;2.00;;;;;;;21.33;59.84;100213.25;1611144;87;21113;-64
2022/06/03 07:50:07;;;;;;;48.90;4.28;;;;;;;21.31;59.81;100215.19;1614649;87;21110;-62
2022/06/03 07:52:46;;;;;;;4.65;1.75;;;;;;;21.33;59.89;100218.56;1626162;87;21040;-64
2022/06/03 07:55:18;;;;;;;5.10;1.80;;;;;;;21.42;59.35;100216.48;1613953;87;21085;-64
2022/06/03 07:57:58;;;;;;;6.25;1.52;;;;;;;21.23;58.80;100217.18;1624781;86;24909;-66
2022/06/03 08:00:26;;;;;;;4.25;1.55;;;;;;;21.09;58.59;100226.30;1632421;87;22305;-61
2022/06/03 08:03:10;;;;;;;5.00;1.80;;;;;;;20.92;58.33;100234.80;1629274;87;22060;-61
2022/06/03 08:05:37;;;;;;;5.55;1.60;;;;;;;20.61;58.07;100228.02;1670898;83;21041;-63
2022/06/03 08:11:05;;;;;;;3.30;1.30;;;;;;;20.22;57.54;100228.92;1664982;85;21665;-62
2022/06/03 08:13:48;;;;;;;9.85;1.98;;;;;;;20.15;57.30;100234.82;1664274;85;22902;-62
2022/06/03 08:16:35;;;;;;;8.85;1.95;;;;;;;19.86;57.37;100231.33;1715430;81;20985;-64
2022/06/03 08:19:12;;;;;;;8.60;1.90;;;;;;;19.45;56.66;100229.53;1725365;81;21376;-61
2022/06/03 08:21:46;;;;;;;4.20;1.77;;;;;;;19.32;57.24;100230.58;1726854;80;20968;-63
2022/06/03 08:24:17;;;;;;;5.08;1.80;;;;;;;19.64;57.22;100229.46;1731588;81;21092;-64
2022/06/03 08:26:55;;;;;;;3.92;1.70;;;;;;;19.68;57.13;100224.31;1737573;81;21100;-63
2022/06/03 08:29:33;;;;;;;6.05;2.10;;;;;;;19.54;56.72;100232.45;1731650;81;21036;-63
2022/06/03 08:32:04;;;;;;;6.83;1.70;;;;;;;19.50;57.16;100227.03;1728328;81;21059;-62
2022/06/03 08:34:50;;;;;;;6.12;1.82;;;;;;;19.81;57.13;100233.00;1730582;81;21088;-61
2022/06/03 08:37:27;;;;;;;5.17;1.82;;;;;;;20.04;57.12;100227.71;1734625;81;22348;-62
2022/06/03 08:39:58;;;;;;;4.87;1.72;;;;;;;20.16;56.07;100230.70;1733110;81;21282;-61
2022/06/03 08:45:41;;;;;;;3.77;1.60;;;;;;;20.88;57.11;100224.09;1824111;77;26262;-61
2022/06/03 08:48:12;;;;;;;9.15;2.00;;;;;;;21.24;56.86;100222.34;1792622;78;21072;-61
2022/06/03 08:51:06;;;;;;;4.42;1.52;;;;;;;21.40;56.68;100225.09;1797659;78;21340;-61
2022/06/03 08:53:55;;;;;;;4.55;1.92;;;;;;;21.41;56.43;100221.45;1756079;79;21056;-61
2022/06/03 08:56:32;;;;;;;6.75;2.02;;;;;;;21.64;56.07;100225.62;1765232;78;20930;-62
2022/06/03 08:59:37;;;;;;;4.70;1.72;;;;;;;21.81;55.92;100226.84;1752497;80;21108;-62
2022/06/03 09:02:24;;;;;;;6.92;1.90;;;;;;;22.02;56.18;100225.48;1743820;80;20998;-61
2022/06/03 09:05:18;;;;;;;13.58;2.42;;;;;;;22.26;55.93;100225.16;1762653;79;21120;-62
2022/06/03 09:07:52;;;;;;;6.25;1.87;;;;;;;22.43;55.38;100224.99;1767413;79;20977;-62
2022/06/03 09:10:32;;;;;;;3.05;1.57;;;;;;;22.07;54.88;100228.58;1725237;81;21582;-62
2022/06/03 09:13:45;;;;;;;6.03;1.70;;;;;;;22.15;54.98;100233.20;1778867;80;20992;-62
2022/06/03 09:16:16;;;;;;;2.70;1.27;;;;;;;21.94;54.51;100224.47;1767237;79;21136;-61
2022/06/03 09:18:59;;;;;;;6.72;2.05;;;;;;;21.47;54.31;100227.56;1736183;81;21661;-62
2022/06/03 09:21:31;;;;;;;4.25;1.60;;;;;;;21.60;54.52;100229.54;1774397;80;21483;-61
2022/06/03 09:24:04;;;;;;;3.95;2.15;;;;;;;21.98;54.69;100221.88;1770869;79;21041;-62
2022/06/03 09:26:41;;;;;;;3.45;1.67;;;;;;;22.39;54.70;100223.59;1769806;78;21013;-62
2022/06/03 09:29:11;;;;;;;5.28;1.75;;;;;;;22.75;53.91;100221.28;1762435;79;21586;-62
2022/06/03 09:31:43;;;;;;;4.00;2.00;;;;;;;22.89;53.66;100216.87;1764879;79;21457;-62
2022/06/03 09:34:13;;;;;;;3.40;1.92;;;;;;;22.86;53.68;100219.82;1764300;79;20955;-62
2022/06/03 09:36:40;;;;;;;21.23;2.80;;;;;;;23.11;53.75;100225.61;1766877;79;21092;-62
2022/06/03 09:39:11;;;;;;;5.37;1.80;;;;;;;23.28;53.50;100220.89;1762731;79;20923;-62
2022/06/03 09:41:42;;;;;;;3.42;1.80;;;;;;;23.38;53.04;100214.20;1760063;79;21578;-63
2022/06/03 09:44:13;;;;;;;22.87;3.02;;;;;;;23.59;53.43;100210.03;1727247;81;21087;-62
2022/06/03 09:46:43;;;;;;;5.35;1.80;;;;;;;23.59;52.34;100208.70;1727239;81;20984;-62
2022/06/03 09:49:10;;;;;;;5.17;1.90;;;;;;;23.41;52.57;100212.11;1713099;81;21038;-62
2022/06/03 09:51:56;;;;;;;4.65;1.72;;;;;;;22.85;51.72;100214.13;1736434;82;21211;-62
2022/06/03 09:54:37;;;;;;;3.00;1.97;;;;;;;22.71;52.22;100212.74;1722060;81;20967;-62
2022/06/03 09:57:22;;;;;;;4.45;1.95;;;;;;;22.52;51.88;100218.88;1723934;81;21177;-62
2022/06/03 10:00:09;;;;;;;9.38;2.00;;;;;;;22.27;51.97;100220.70;1724365;81;21072;-61
2022/06/03 10:02:36;;;;;;;14.75;3.10;;;;;;;22.44;52.03;100216.05;1735786;81;21128;-62
2022/06/03 10:05:04;;;;;;;;;;;;;;;22.68;51.98;100217.48;1737455;82;21579;-62
2022/06/03 10:07:32;;;;;;;6.72;1.55;;;;;;;22.72;50.73;100217.57;1719354;82;20156;-62
2022/06/03 10:12:50;;;;;;;4.67;1.57;;;;;;;22.07;51.01;100215.29;1735549;82;21458;-62
2022/06/03 10:15:43;;;;;;;4.00;2.10;;;;;;;21.56;50.21;100219.30;1761472;77;21045;-62
2022/06/03 10:18:30;;;;;;;12.28;2.22;;;;;;;21.36;50.56;100222.28;1772237;79;21141;-61
2022/06/03 10:21:18;;;;;;;;;;;;;;;;;;;;;
2022/06/03 10:23:56;;;;;;;;;;;;;;;21.65;50.89;100218.03;1595753;88;21124;-62
2022/06/03 10:26:38;;;;;;;5.05;1.82;;;;;;;21.92;50.85;100215.77;1594387;88;20160;-62
2022/06/03 10:29:12;;;;;;;6.42;2.30;;;;;;;22.22;51.19;100214.95;1593979;88;21108;-64
2022/06/03 10:31:39;;;;;;;6.65;1.80;;;;;;;22.44;50.98;100214.72;1593172;88;21077;-60
2022/06/03 10:34:10;;;;;;;5.25;2.00;;;;;;;22.38;50.15;100220.59;1593995;88;20987;-62
2022/06/03 10:36:42;;;;;;;3.72;1.80;;;;;;;21.81;49.87;100217.53;1596581;88;21138;-63
2022/06/03 10:39:15;;;;;;;3.98;1.70;;;;;;;21.56;50.22;100210.83;1597878;88;21048;-62
2022/06/03 10:41:46;;;;;;;4.55;1.77;;;;;;;21.50;50.03;100219.33;1596167;88;21126;-62
2022/06/03 10:44:22;;;;;;;4.10;1.82;;;;;;;21.63;50.52;100209.34;1596170;88;21128;-62
2022/06/03 10:46:59;;;;;;;4.55;1.22;;;;;;;21.79;50.49;100205.35;1596248;88;21201;-62
2022/06/03 10:49:29;;;;;;;4.05;1.95;;;;;;;21.96;50.43;100211.86;1595299;88;21483;-62
2022/06/03 11:03:30;;;;;;;4.40;1.87;;;;;;;21.96;49.64;100212.73;1640646;85;21191;-61
2022/06/03 11:05:57;;;;;;;4.72;1.70;;;;;;;21.48;49.56;100219.94;1647055;85;21053;-62
2022/06/03 11:08:24;;;;;;;18.48;2.70;;;;;;;21.58;49.76;100213.37;1647220;86;21674;-62
2022/06/03 11:10:57;;;;;;;4.72;1.57;;;;;;;21.70;49.49;100208.81;1652849;84;21085;-62
2022/06/03 11:13:39;;;;;;;3.08;1.62;;;;;;;21.91;49.76;100206.96;1605302;88;21658;-62
2022/06/03 11:16:25;;;;;;;5.37;1.57;;;;;;;22.13;49.72;100202.78;1650621;85;21382;-63
2022/06/03 11:18:52;;;;;;;50.80;6.58;;;;;;;22.29;49.55;100208.09;1651812;84;21049;-62
2022/06/03 11:21:26;;;;;;;9.63;2.45;;;;;;;22.09;49.25;100202.67;1649619;85;20962;-62
2022/06/03 11:23:57;;;;;;;3.12;1.60;;;;;;;21.97;48.92;100201.59;1640618;86;21184;-62
2022/06/03 11:26:38;;;;;;;3.30;1.82;;;;;;;21.79;48.97;100207.55;1630975;86;21602;-61
2022/06/03 11:29:17;;;;;;;3.85;1.60;;;;;;;21.86;48.95;100207.84;1599257;86;21159;-62
2022/06/03 11:31:47;;;;;;;4.80;1.70;;;;;;;21.98;49.13;100204.11;1561963;89;21143;-62
2022/06/03 11:34:37;;;;;;;2.17;1.70;;;;;;;21.98;48.66;100210.75;1569459;89;21091;-62
2022/06/03 11:37:18;;;;;;;6.08;1.75;;;;;;;22.12;48.80;100206.42;1621569;86;21149;-65
2022/06/03 11:39:52;;;;;;;2.33;1.50;;;;;;;21.88;48.15;100204.57;1611829;86;21131;-61
2022/06/03 11:42:48;;;;;;;2.77;1.30;;;;;;;21.56;48.25;100201.53;1614813;85;21052;-61
2022/06/03 11:45:19;;;;;;;2.95;1.65;;;;;;;21.45;48.36;100200.27;1610708;86;21527;-62
2022/06/03 11:48:02;;;;;;;3.50;1.80;;;;;;;21.71;48.77;100199.88;1607996;86;21051;-62
2022/06/03 11:50:33;;;;;;;14.15;2.33;;;;;;;22.07;48.56;100193.15;1608604;86;21022;-62
2022/06/03 11:53:21;;;;;;;3.90;1.70;;;;;;;22.39;48.62;100193.00;1615303;86;21007;-63
2022/06/03 11:55:48;;;;;;;2.17;1.47;;;;;;;22.55;48.46;100189.32;1588122;89;21544;-60
2022/06/03 11:58:29;;;;;;;8.93;2.30;;;;;;;22.76;48.46;100192.34;1598658;88;21645;-62
2022/06/03 12:01:02;;;;;;;10.28;2.47;;;;;;;22.64;48.35;100185.48;1597895;88;22177;-62
2022/06/03 12:03:46;;;;;;;41.28;5.30;;;;;;;22.65;48.24;100182.66;1591513;86;21060;-62
2022/06/03 12:06:24;;;;;;;5.25;2.12;;;;;;;22.75;47.93;100190.67;1548372;91;21227;-62
2022/06/03 12:09:09;;;;;;;3.27;1.45;;;;;;;22.86;48.03;100179.88;1537398;91;21680;-62
2022/06/03 12:14:44;;;;;;;3.37;1.45;;;;;;;21.83;46.47;100182.86;1552924;90;21623;-61
2022/06/03 12:17:16;;;;;;;4.45;1.67;;;;;;;21.74;47.36;100176.53;1552416;90;21154;-62
2022/06/03 12:19:47;;;;;;;46.65;6.10;;;;;;;22.02;47.44;100184.27;1534714;91;21237;-62
2022/06/03 12:22:34;;;;;;;10.13;1.75;;;;;;;22.49;47.70;100179.70;1550558;91;21105;-62
2022/06/03 12:25:09;;;;;;;2.42;1.67;;;;;;;22.79;47.25;100171.59;1536453;91;21133;-61
2022/06/03 12:27:42;;;;;;;3.12;1.57;;;;;;;22.81;47.03;100167.97;1536931;90;21225;-62
2022/06/03 12:30:23;;;;;;;4.75;1.50;;;;;;;22.89;47.21;100164.95;1535751;91;21154;-62
2022/06/03 12:33:11;;;;;;;4.08;2.00;;;;;;;23.17;46.80;100159.77;1534591;91;21121;-61
2022/06/03 12:35:52;;;;;;;7.33;2.15;;;;;;;23.01;46.35;100167.84;1538381;91;21280;-62
2022/06/03 12:38:26;;;;;;;10.93;1.65;;;;;;;23.19;46.75;100159.12;1548812;90;22465;-62
2022/06/03 12:40:57;;;;;;;3.12;1.52;;;;;;;23.21;45.70;100151.83;1522048;92;21144;-62
2022/06/03 12:43:32;;;;;;;4.83;1.40;;;;;;;23.17;46.15;100158.44;1580060;89;21048;-63
2022/06/03 12:46:09;;;;;;;4.37;1.67;;;;;;;23.23;46.18;100159.20;1593857;88;21163;-62
2022/06/03 12:48:47;;;;;;;1.80;1.22;;;;;;;23.03;45.89;100156.23;1580169;89;21470;-62
2022/06/03 12:51:33;;;;;;;8.38;1.98;;;;;;;23.00;45.96;100152.86;1608369;88;21044;-62
2022/06/03 12:54:16;;;;;;;4.28;1.67;;;;;;;23.18;45.99;100148.13;1596414;88;21098;-62
2022/06/03 12:56:51;;;;;;;3.83;1.85;;;;;;;23.07;45.36;100148.28;1584929;89;26622;-62
2022/06/03 12:59:41;;;;;;;2.27;1.35;;;;;;;22.24;44.59;100147.34;1585913;88;21174;-63
2022/06/03 13:02:19;;;;;;;3.40;1.35;;;;;;;22.12;45.36;100158.55;1560039;89;21543;-62
2022/06/03 13:05:00;;;;;;;6.90;1.20;;;;;;;22.09;45.15;100149.49;1557984;90;21128;-61
2022/06/03 13:07:48;;;;;;;4.47;1.40;;;;;;;21.95;44.55;100142.39;1561642;89;21085;-61
2022/06/03 13:10:23;;;;;;;4.08;1.30;;;;;;;21.88;44.96;100144.77;1566019;89;21944;-62
2022/06/03 13:12:53;;;;;;;2.52;1.17;;;;;;;21.97;44.66;100145.27;1563532;89;21096;-62
2022/06/03 13:15:27;;;;;;;2.60;1.30;;;;;;;21.98;43.71;100140.79;1545563;90;21781;-61
2022/06/03 13:20:49;;;;;;;5.85;1.98;;;;;;;21.61;44.08;100138.20;1550098;91;21739;-62
2022/06/03 13:23:27;;;;;;;50.12;4.03;;;;;;;21.53;44.57;100143.84;1530229;89;22040;-61
2022/06/03 13:25:54;;;;;;;6.10;1.57;;;;;;;21.49;44.39;100145.92;1545596;90;21248;-63
2022/06/03 13:28:37;;;;;;;3.35;1.45;;;;;;;21.43;44.59;100141.15;1562420;90;21155;-63